Pagina principale
METAR-TAF:

METAR-TAF

Aeroporti :

De Aar, Sudafrica

latitudine: 30-40-29S, longitudine: 23-59-57E, altezza: 1286 m

Osservazione

Il bollettino è stato emesso 7 ore e 9 minuti fa, alle 11:30 UTC
Vento 10 kt da sud/sud-est con raffiche fino a 23 kt
Temperature 19°C
Umidità 60%
Pressione 1015 hPa
Visibilità 10 km o più
Nubi sparse ad un'altezza di 3500 ft
Poco nuvoloso ad un'altezza di 4000 ft, Cumulonembo.
Nuvoloso ad un'altezza di 10000 ft
temporale

METAR: FADY 101130Z 16010G23KT 9999 TS SCT035 FEW040CB BKN100 19/11 Q1015

Ora: 20:39 (18:39 UTC)


TAF: mancante

Osservazioni e previsioni meteorologiche di più di 4000 aeroporti (messaggi METAR e TAF).

Le stazioni disponibili sono rappresentate dai dischi gialli e rossi sulla carta.

Puntare il mouse per vedere il nome della stazione.

Clicca sopra per visualizzare le osservazioni e previsioni meteorologiche.

Per cambiare la mappa : fare clic sui pulsanti verdi con una croce nera per ingrandire, il pulsante verde con un trattino per diminuire, o sulla freccia verde per le mappe adiacenti.


METAR-TAF: